sensor_id;sensor_type;location;lat;lon;timestamp;temperature;humidity
21811;DHT22;11067;48.788;9.208;2023-09-30T00:01:37;17.90;99.90
21811;DHT22;11067;48.788;9.208;2023-09-30T00:04:02;17.90;99.90
21811;DHT22;11067;48.788;9.208;2023-09-30T00:06:30;17.90;99.90
21811;DHT22;11067;48.788;9.208;2023-09-30T00:08:56;17.90;99.90
21811;DHT22;11067;48.788;9.208;2023-09-30T00:11:21;17.90;99.90
21811;DHT22;11067;48.788;9.208;2023-09-30T00:13:47;17.90;99.90
21811;DHT22;11067;48.788;9.208;2023-09-30T00:16:14;17.80;99.90
21811;DHT22;11067;48.788;9.208;2023-09-30T00:18:42;17.80;99.90
21811;DHT22;11067;48.788;9.208;2023-09-30T00:21:08;17.70;99.90
21811;DHT22;11067;48.788;9.208;2023-09-30T00:23:33;17.70;99.90
21811;DHT22;11067;48.788;9.208;2023-09-30T00:25:59;17.70;99.90
21811;DHT22;11067;48.788;9.208;2023-09-30T00:28:26;17.60;99.90
21811;DHT22;11067;48.788;9.208;2023-09-30T00:30:51;17.70;99.90
21811;DHT22;11067;48.788;9.208;2023-09-30T00:33:17;17.60;99.90
21811;DHT22;11067;48.788;9.208;2023-09-30T00:35:42;17.70;99.90
21811;DHT22;11067;48.788;9.208;2023-09-30T00:38:08;17.60;99.90
21811;DHT22;11067;48.788;9.208;2023-09-30T00:40:35;17.70;99.90
21811;DHT22;11067;48.788;9.208;2023-09-30T00:43:01;17.50;99.90
21811;DHT22;11067;48.788;9.208;2023-09-30T00:45:27;17.50;99.90
21811;DHT22;11067;48.788;9.208;2023-09-30T00:47:53;17.40;99.90
21811;DHT22;11067;48.788;9.208;2023-09-30T00:50:22;17.40;99.90
21811;DHT22;11067;48.788;9.208;2023-09-30T00:52:48;17.50;99.90
21811;DHT22;11067;48.788;9.208;2023-09-30T00:55:15;17.30;99.90
21811;DHT22;11067;48.788;9.208;2023-09-30T00:57:41;17.30;99.90
21811;DHT22;11067;48.788;9.208;2023-09-30T01:00:08;17.20;99.90
21811;DHT22;11067;48.788;9.208;2023-09-30T01:02:40;17.20;99.90
21811;DHT22;11067;48.788;9.208;2023-09-30T01:05:07;17.20;99.90
21811;DHT22;11067;48.788;9.208;2023-09-30T01:07:34;17.10;99.90
21811;DHT22;11067;48.788;9.208;2023-09-30T01:09:59;17.00;99.90
21811;DHT22;11067;48.788;9.208;2023-09-30T01:12:25;17.00;99.90
21811;DHT22;11067;48.788;9.208;2023-09-30T01:14:55;17.00;99.90
21811;DHT22;11067;48.788;9.208;2023-09-30T01:17:22;17.00;99.90
21811;DHT22;11067;48.788;9.208;2023-09-30T01:19:48;16.90;99.90
21811;DHT22;11067;48.788;9.208;2023-09-30T01:22:15;16.90;99.90
21811;DHT22;11067;48.788;9.208;2023-09-30T01:24:42;16.90;99.90
21811;DHT22;11067;48.788;9.208;2023-09-30T01:27:08;16.80;99.90
21811;DHT22;11067;48.788;9.208;2023-09-30T01:29:34;16.80;99.90
21811;DHT22;11067;48.788;9.208;2023-09-30T01:32:00;16.80;99.90
21811;DHT22;11067;48.788;9.208;2023-09-30T01:34:26;16.80;99.90
21811;DHT22;11067;48.788;9.208;2023-09-30T01:36:52;16.70;99.90
21811;DHT22;11067;48.788;9.208;2023-09-30T01:39:18;16.70;99.90
21811;DHT22;11067;48.788;9.208;2023-09-30T01:41:44;16.70;99.90
21811;DHT22;11067;48.788;9.208;2023-09-30T01:44:10;16.70;99.90
21811;DHT22;11067;48.788;9.208;2023-09-30T01:46:36;16.60;99.90
21811;DHT22;11067;48.788;9.208;2023-09-30T01:49:02;16.50;99.90
21811;DHT22;11067;48.788;9.208;2023-09-30T01:51:29;16.60;99.90
21811;DHT22;11067;48.788;9.208;2023-09-30T01:53:55;16.70;99.90
21811;DHT22;11067;48.788;9.208;2023-09-30T01:56:21;16.60;99.90
21811;DHT22;11067;48.788;9.208;2023-09-30T01:58:46;16.70;99.90
21811;DHT22;11067;48.788;9.208;2023-09-30T02:01:12;16.80;99.90
21811;DHT22;11067;48.788;9.208;2023-09-30T02:03:37;16.80;99.90
21811;DHT22;11067;48.788;9.208;2023-09-30T02:06:03;16.80;99.90
21811;DHT22;11067;48.788;9.208;2023-09-30T02:08:29;16.70;99.90
21811;DHT22;11067;48.788;9.208;2023-09-30T02:10:54;16.60;99.90
21811;DHT22;11067;48.788;9.208;2023-09-30T02:13:20;16.70;99.90
21811;DHT22;11067;48.788;9.208;2023-09-30T02:15:46;16.60;99.90
21811;DHT22;11067;48.788;9.208;2023-09-30T02:18:11;16.50;99.90
21811;DHT22;11067;48.788;9.208;2023-09-30T02:20:37;16.50;99.90
21811;DHT22;11067;48.788;9.208;2023-09-30T02:23:09;16.50;99.90
21811;DHT22;11067;48.788;9.208;2023-09-30T02:25:39;16.50;99.90
21811;DHT22;11067;48.788;9.208;2023-09-30T02:28:06;16.40;99.90
21811;DHT22;11067;48.788;9.208;2023-09-30T02:30:32;16.40;99.90
21811;DHT22;11067;48.788;9.208;2023-09-30T02:32:57;16.50;99.90
21811;DHT22;11067;48.788;9.208;2023-09-30T02:35:23;16.40;99.90
21811;DHT22;11067;48.788;9.208;2023-09-30T02:37:49;16.40;99.90
21811;DHT22;11067;48.788;9.208;2023-09-30T02:40:16;16.30;99.90
21811;DHT22;11067;48.788;9.208;2023-09-30T02:42:42;16.40;99.90
21811;DHT22;11067;48.788;9.208;2023-09-30T02:45:10;16.30;99.90
21811;DHT22;11067;48.788;9.208;2023-09-30T02:47:37;16.40;99.90
21811;DHT22;11067;48.788;9.208;2023-09-30T02:50:07;16.40;99.90
21811;DHT22;11067;48.788;9.208;2023-09-30T02:52:41;16.40;99.90
21811;DHT22;11067;48.788;9.208;2023-09-30T02:55:08;16.40;99.90
21811;DHT22;11067;48.788;9.208;2023-09-30T02:57:34;16.40;99.90
21811;DHT22;11067;48.788;9.208;2023-09-30T03:00:02;16.30;99.90
21811;DHT22;11067;48.788;9.208;2023-09-30T03:02:37;16.30;99.90
21811;DHT22;11067;48.788;9.208;2023-09-30T03:05:03;16.30;99.90
21811;DHT22;11067;48.788;9.208;2023-09-30T03:07:30;16.30;99.90
21811;DHT22;11067;48.788;9.208;2023-09-30T03:09:55;16.30;99.90
21811;DHT22;11067;48.788;9.208;2023-09-30T03:12:21;16.30;99.90
21811;DHT22;11067;48.788;9.208;2023-09-30T03:14:46;16.30;99.90
21811;DHT22;11067;48.788;9.208;2023-09-30T03:17:12;16.30;99.90
21811;DHT22;11067;48.788;9.208;2023-09-30T03:19:38;16.30;99.90
21811;DHT22;11067;48.788;9.208;2023-09-30T03:22:04;16.30;99.90
21811;DHT22;11067;48.788;9.208;2023-09-30T03:24:30;16.30;99.90
21811;DHT22;11067;48.788;9.208;2023-09-30T03:26:55;16.30;99.90
21811;DHT22;11067;48.788;9.208;2023-09-30T03:29:21;16.40;99.90
21811;DHT22;11067;48.788;9.208;2023-09-30T03:31:46;16.40;99.90
21811;DHT22;11067;48.788;9.208;2023-09-30T03:34:12;16.30;99.90
21811;DHT22;11067;48.788;9.208;2023-09-30T03:36:39;16.40;99.90
21811;DHT22;11067;48.788;9.208;2023-09-30T03:39:06;16.40;99.90
21811;DHT22;11067;48.788;9.208;2023-09-30T03:41:34;16.40;99.90
21811;DHT22;11067;48.788;9.208;2023-09-30T03:44:02;16.40;99.90
21811;DHT22;11067;48.788;9.208;2023-09-30T03:46:27;16.50;99.90
21811;DHT22;11067;48.788;9.208;2023-09-30T03:48:53;16.50;99.90
21811;DHT22;11067;48.788;9.208;2023-09-30T03:51:20;16.40;99.90
21811;DHT22;11067;48.788;9.208;2023-09-30T03:53:47;16.50;99.90
21811;DHT22;11067;48.788;9.208;2023-09-30T03:56:14;16.50;99.90
21811;DHT22;11067;48.788;9.208;2023-09-30T03:58:40;16.40;99.90
21811;DHT22;11067;48.788;9.208;2023-09-30T04:01:07;16.40;99.90
21811;DHT22;11067;48.788;9.208;2023-09-30T04:03:39;16.40;99.90
21811;DHT22;11067;48.788;9.208;2023-09-30T04:06:05;16.40;99.90
21811;DHT22;11067;48.788;9.208;2023-09-30T04:08:32;16.50;99.90
21811;DHT22;11067;48.788;9.208;2023-09-30T04:10:59;16.50;99.90
21811;DHT22;11067;48.788;9.208;2023-09-30T04:13:24;16.50;99.90
21811;DHT22;11067;48.788;9.208;2023-09-30T04:15:50;16.40;99.90
21811;DHT22;11067;48.788;9.208;2023-09-30T04:18:16;16.40;99.90
21811;DHT22;11067;48.788;9.208;2023-09-30T04:20:41;16.40;99.90
21811;DHT22;11067;48.788;9.208;2023-09-30T04:23:07;16.30;99.90
21811;DHT22;11067;48.788;9.208;2023-09-30T04:25:35;16.30;99.90
21811;DHT22;11067;48.788;9.208;2023-09-30T04:28:00;16.30;99.90
21811;DHT22;11067;48.788;9.208;2023-09-30T04:30:27;16.30;99.90
21811;DHT22;11067;48.788;9.208;2023-09-30T04:32:53;16.30;99.90
21811;DHT22;11067;48.788;9.208;2023-09-30T04:35:19;16.30;99.90
21811;DHT22;11067;48.788;9.208;2023-09-30T04:37:45;16.30;99.90
21811;DHT22;11067;48.788;9.208;2023-09-30T04:40:11;16.30;99.90
21811;DHT22;11067;48.788;9.208;2023-09-30T04:42:43;16.30;99.90
21811;DHT22;11067;48.788;9.208;2023-09-30T04:45:13;16.30;99.90
21811;DHT22;11067;48.788;9.208;2023-09-30T04:47:42;16.20;99.90
21811;DHT22;11067;48.788;9.208;2023-09-30T04:50:10;16.30;99.90
21811;DHT22;11067;48.788;9.208;2023-09-30T04:52:37;16.30;99.90
21811;DHT22;11067;48.788;9.208;2023-09-30T04:55:04;16.20;99.90
21811;DHT22;11067;48.788;9.208;2023-09-30T04:57:30;16.20;99.90
21811;DHT22;11067;48.788;9.208;2023-09-30T04:59:56;16.20;99.90
21811;DHT22;11067;48.788;9.208;2023-09-30T05:02:23;16.10;99.90
21811;DHT22;11067;48.788;9.208;2023-09-30T05:04:48;16.10;99.90
21811;DHT22;11067;48.788;9.208;2023-09-30T05:07:14;16.10;99.90
21811;DHT22;11067;48.788;9.208;2023-09-30T05:09:39;16.10;99.90
21811;DHT22;11067;48.788;9.208;2023-09-30T05:12:05;16.20;99.90
21811;DHT22;11067;48.788;9.208;2023-09-30T05:14:31;16.20;99.90
21811;DHT22;11067;48.788;9.208;2023-09-30T05:16:56;16.20;99.90
21811;DHT22;11067;48.788;9.208;2023-09-30T05:19:22;16.20;99.90
21811;DHT22;11067;48.788;9.208;2023-09-30T05:21:48;16.20;99.90
21811;DHT22;11067;48.788;9.208;2023-09-30T05:24:14;16.20;99.90
21811;DHT22;11067;48.788;9.208;2023-09-30T05:26:40;16.20;99.90
21811;DHT22;11067;48.788;9.208;2023-09-30T05:29:06;16.20;99.90
21811;DHT22;11067;48.788;9.208;2023-09-30T05:31:32;16.10;99.90
21811;DHT22;11067;48.788;9.208;2023-09-30T05:33:58;16.10;99.90
21811;DHT22;11067;48.788;9.208;2023-09-30T05:36:24;16.00;99.90
21811;DHT22;11067;48.788;9.208;2023-09-30T05:38:49;16.00;99.90
21811;DHT22;11067;48.788;9.208;2023-09-30T05:41:15;16.00;99.90
21811;DHT22;11067;48.788;9.208;2023-09-30T05:43:40;16.10;99.90
21811;DHT22;11067;48.788;9.208;2023-09-30T05:46:08;16.00;99.90
21811;DHT22;11067;48.788;9.208;2023-09-30T05:48:34;16.10;99.90
21811;DHT22;11067;48.788;9.208;2023-09-30T05:51:00;16.10;99.90
21811;DHT22;11067;48.788;9.208;2023-09-30T05:53:27;16.10;99.90
21811;DHT22;11067;48.788;9.208;2023-09-30T05:55:53;16.10;99.90
21811;DHT22;11067;48.788;9.208;2023-09-30T05:58:19;16.20;99.90
21811;DHT22;11067;48.788;9.208;2023-09-30T06:00:45;16.20;99.90
21811;DHT22;11067;48.788;9.208;2023-09-30T06:03:10;16.20;99.90
21811;DHT22;11067;48.788;9.208;2023-09-30T06:05:40;16.20;99.90
21811;DHT22;11067;48.788;9.208;2023-09-30T06:08:07;16.30;99.90
21811;DHT22;11067;48.788;9.208;2023-09-30T06:10:36;16.30;99.90
21811;DHT22;11067;48.788;9.208;2023-09-30T06:13:03;16.40;99.90
21811;DHT22;11067;48.788;9.208;2023-09-30T06:15:28;16.30;99.90
21811;DHT22;11067;48.788;9.208;2023-09-30T06:17:55;16.40;99.90
21811;DHT22;11067;48.788;9.208;2023-09-30T06:20:21;16.50;99.90
21811;DHT22;11067;48.788;9.208;2023-09-30T06:22:56;16.30;99.90
21811;DHT22;11067;48.788;9.208;2023-09-30T06:25:22;16.50;99.90
21811;DHT22;11067;48.788;9.208;2023-09-30T06:27:49;16.40;99.90
21811;DHT22;11067;48.788;9.208;2023-09-30T06:30:16;16.40;99.90
21811;DHT22;11067;48.788;9.208;2023-09-30T06:32:42;16.30;99.90
21811;DHT22;11067;48.788;9.208;2023-09-30T06:35:09;16.40;99.90
21811;DHT22;11067;48.788;9.208;2023-09-30T06:37:38;16.40;99.90
21811;DHT22;11067;48.788;9.208;2023-09-30T06:40:05;16.30;99.90
21811;DHT22;11067;48.788;9.208;2023-09-30T06:42:33;16.40;99.90
21811;DHT22;11067;48.788;9.208;2023-09-30T06:44:59;16.30;99.90
21811;DHT22;11067;48.788;9.208;2023-09-30T06:47:24;16.40;99.90
21811;DHT22;11067;48.788;9.208;2023-09-30T06:49:50;16.30;99.90
21811;DHT22;11067;48.788;9.208;2023-09-30T06:52:15;16.40;99.90
21811;DHT22;11067;48.788;9.208;2023-09-30T06:54:41;16.70;99.90
21811;DHT22;11067;48.788;9.208;2023-09-30T06:57:06;16.70;99.90
21811;DHT22;11067;48.788;9.208;2023-09-30T06:59:33;16.80;99.90
21811;DHT22;11067;48.788;9.208;2023-09-30T07:01:59;16.80;99.90
21811;DHT22;11067;48.788;9.208;2023-09-30T07:04:24;16.80;99.90
21811;DHT22;11067;48.788;9.208;2023-09-30T07:06:52;16.70;99.90
21811;DHT22;11067;48.788;9.208;2023-09-30T07:09:18;16.70;99.90
21811;DHT22;11067;48.788;9.208;2023-09-30T07:11:45;16.90;99.90
21811;DHT22;11067;48.788;9.208;2023-09-30T07:14:10;17.00;99.90
21811;DHT22;11067;48.788;9.208;2023-09-30T07:16:36;16.90;99.90
21811;DHT22;11067;48.788;9.208;2023-09-30T07:19:02;17.10;99.90
21811;DHT22;11067;48.788;9.208;2023-09-30T07:21:28;16.90;99.90
21811;DHT22;11067;48.788;9.208;2023-09-30T07:23:54;16.60;99.90
21811;DHT22;11067;48.788;9.208;2023-09-30T07:26:24;16.70;99.90
21811;DHT22;11067;48.788;9.208;2023-09-30T07:28:49;16.60;99.90
21811;DHT22;11067;48.788;9.208;2023-09-30T07:31:15;16.60;99.90
21811;DHT22;11067;48.788;9.208;2023-09-30T07:33:40;16.60;99.90
21811;DHT22;11067;48.788;9.208;2023-09-30T07:36:06;16.80;99.90
21811;DHT22;11067;48.788;9.208;2023-09-30T07:38:32;16.70;99.90
21811;DHT22;11067;48.788;9.208;2023-09-30T07:41:00;16.80;99.90
21811;DHT22;11067;48.788;9.208;2023-09-30T07:43:27;16.50;99.90
21811;DHT22;11067;48.788;9.208;2023-09-30T07:45:53;16.60;99.90
21811;DHT22;11067;48.788;9.208;2023-09-30T07:48:19;16.70;99.90
21811;DHT22;11067;48.788;9.208;2023-09-30T07:50:44;16.70;99.90
21811;DHT22;11067;48.788;9.208;2023-09-30T07:53:10;16.80;99.90
21811;DHT22;11067;48.788;9.208;2023-09-30T07:55:37;16.70;99.90
21811;DHT22;11067;48.788;9.208;2023-09-30T07:58:03;16.70;99.90
21811;DHT22;11067;48.788;9.208;2023-09-30T08:00:28;16.80;99.90
21811;DHT22;11067;48.788;9.208;2023-09-30T08:02:54;17.00;99.90
21811;DHT22;11067;48.788;9.208;2023-09-30T08:05:20;17.00;99.90
21811;DHT22;11067;48.788;9.208;2023-09-30T08:07:45;17.00;99.90
21811;DHT22;11067;48.788;9.208;2023-09-30T08:10:11;17.00;99.90
21811;DHT22;11067;48.788;9.208;2023-09-30T08:12:42;17.10;99.90
21811;DHT22;11067;48.788;9.208;2023-09-30T08:15:11;17.30;99.90
21811;DHT22;11067;48.788;9.208;2023-09-30T08:17:40;17.50;99.90
21811;DHT22;11067;48.788;9.208;2023-09-30T08:20:07;17.50;99.90
21811;DHT22;11067;48.788;9.208;2023-09-30T08:22:34;17.50;99.90
21811;DHT22;11067;48.788;9.208;2023-09-30T08:24:59;17.40;99.90
21811;DHT22;11067;48.788;9.208;2023-09-30T08:27:25;17.30;99.90
21811;DHT22;11067;48.788;9.208;2023-09-30T08:29:51;17.40;99.90
21811;DHT22;11067;48.788;9.208;2023-09-30T08:32:16;17.50;99.90
21811;DHT22;11067;48.788;9.208;2023-09-30T08:34:42;17.50;99.90
21811;DHT22;11067;48.788;9.208;2023-09-30T08:37:07;17.50;99.90
21811;DHT22;11067;48.788;9.208;2023-09-30T08:39:38;17.70;99.90
21811;DHT22;11067;48.788;9.208;2023-09-30T08:42:07;17.80;99.90
21811;DHT22;11067;48.788;9.208;2023-09-30T08:44:34;17.90;99.90
21811;DHT22;11067;48.788;9.208;2023-09-30T08:47:01;18.20;99.90
21811;DHT22;11067;48.788;9.208;2023-09-30T08:49:27;18.40;99.90
21811;DHT22;11067;48.788;9.208;2023-09-30T08:51:54;18.30;99.90
21811;DHT22;11067;48.788;9.208;2023-09-30T08:54:22;18.20;99.90
21811;DHT22;11067;48.788;9.208;2023-09-30T08:56:48;18.50;99.90
21811;DHT22;11067;48.788;9.208;2023-09-30T08:59:15;18.60;99.90
21811;DHT22;11067;48.788;9.208;2023-09-30T09:01:40;18.60;99.90
21811;DHT22;11067;48.788;9.208;2023-09-30T09:04:07;18.90;99.90
21811;DHT22;11067;48.788;9.208;2023-09-30T09:06:32;19.00;99.90
21811;DHT22;11067;48.788;9.208;2023-09-30T09:09:17;18.70;99.90
21811;DHT22;11067;48.788;9.208;2023-09-30T09:11:46;18.80;99.90
21811;DHT22;11067;48.788;9.208;2023-09-30T09:14:12;18.60;99.90
21811;DHT22;11067;48.788;9.208;2023-09-30T09:16:47;18.50;99.90
21811;DHT22;11067;48.788;9.208;2023-09-30T09:19:15;18.70;99.90
21811;DHT22;11067;48.788;9.208;2023-09-30T09:21:54;18.90;99.90
21811;DHT22;11067;48.788;9.208;2023-09-30T09:24:41;19.00;99.90
21811;DHT22;11067;48.788;9.208;2023-09-30T09:27:13;19.00;99.90
21811;DHT22;11067;48.788;9.208;2023-09-30T09:29:42;19.30;99.90
21811;DHT22;11067;48.788;9.208;2023-09-30T09:32:17;19.40;99.90
21811;DHT22;11067;48.788;9.208;2023-09-30T09:34:45;19.30;99.90
21811;DHT22;11067;48.788;9.208;2023-09-30T09:37:25;19.30;99.90
21811;DHT22;11067;48.788;9.208;2023-09-30T09:39:54;19.30;99.90
21811;DHT22;11067;48.788;9.208;2023-09-30T09:42:29;19.10;99.90
21811;DHT22;11067;48.788;9.208;2023-09-30T09:44:57;19.10;99.90
21811;DHT22;11067;48.788;9.208;2023-09-30T09:47:23;19.10;99.90
21811;DHT22;11067;48.788;9.208;2023-09-30T09:49:52;19.20;99.90
21811;DHT22;11067;48.788;9.208;2023-09-30T09:52:19;19.50;99.90
21811;DHT22;11067;48.788;9.208;2023-09-30T09:54:46;19.70;99.90
21811;DHT22;11067;48.788;9.208;2023-09-30T09:57:12;19.80;99.90
21811;DHT22;11067;48.788;9.208;2023-09-30T09:59:41;19.60;99.90
21811;DHT22;11067;48.788;9.208;2023-09-30T10:02:11;19.60;99.90
21811;DHT22;11067;48.788;9.208;2023-09-30T10:04:43;20.00;99.90
21811;DHT22;11067;48.788;9.208;2023-09-30T10:07:20;20.00;99.90
21811;DHT22;11067;48.788;9.208;2023-09-30T10:09:49;19.80;99.90
21811;DHT22;11067;48.788;9.208;2023-09-30T10:12:16;19.70;99.90
21811;DHT22;11067;48.788;9.208;2023-09-30T10:14:42;19.80;99.90
21811;DHT22;11067;48.788;9.208;2023-09-30T10:17:07;20.30;99.90
21811;DHT22;11067;48.788;9.208;2023-09-30T10:19:33;20.50;99.90
21811;DHT22;11067;48.788;9.208;2023-09-30T10:24:43;20.70;99.90
21811;DHT22;11067;48.788;9.208;2023-09-30T10:30:18;20.90;99.90
21811;DHT22;11067;48.788;9.208;2023-09-30T10:35:19;20.60;99.90
21811;DHT22;11067;48.788;9.208;2023-09-30T10:37:46;20.40;99.90
21811;DHT22;11067;48.788;9.208;2023-09-30T10:40:29;20.00;99.90
21811;DHT22;11067;48.788;9.208;2023-09-30T10:42:55;20.10;99.90
21811;DHT22;11067;48.788;9.208;2023-09-30T10:53:21;20.40;99.90
21811;DHT22;11067;48.788;9.208;2023-09-30T10:55:46;20.40;99.90
21811;DHT22;11067;48.788;9.208;2023-09-30T10:58:13;20.30;99.90
21811;DHT22;11067;48.788;9.208;2023-09-30T11:00:38;20.20;99.90
21811;DHT22;11067;48.788;9.208;2023-09-30T11:03:04;20.40;99.90
21811;DHT22;11067;48.788;9.208;2023-09-30T11:05:31;20.60;99.90
21811;DHT22;11067;48.788;9.208;2023-09-30T11:08:02;20.40;99.90
21811;DHT22;11067;48.788;9.208;2023-09-30T11:10:29;20.40;99.90
21811;DHT22;11067;48.788;9.208;2023-09-30T11:15:20;20.30;99.90
21811;DHT22;11067;48.788;9.208;2023-09-30T11:17:46;20.40;99.90
21811;DHT22;11067;48.788;9.208;2023-09-30T11:20:12;20.60;99.90
21811;DHT22;11067;48.788;9.208;2023-09-30T11:22:37;20.40;99.90
21811;DHT22;11067;48.788;9.208;2023-09-30T11:25:05;20.70;99.90
21811;DHT22;11067;48.788;9.208;2023-09-30T11:27:30;20.90;99.90
21811;DHT22;11067;48.788;9.208;2023-09-30T11:29:57;21.20;99.90
21811;DHT22;11067;48.788;9.208;2023-09-30T11:32:25;21.30;99.90
21811;DHT22;11067;48.788;9.208;2023-09-30T11:34:54;21.10;99.90
21811;DHT22;11067;48.788;9.208;2023-09-30T11:37:20;21.50;99.90
21811;DHT22;11067;48.788;9.208;2023-09-30T11:39:47;21.60;99.90
21811;DHT22;11067;48.788;9.208;2023-09-30T11:42:17;21.50;99.90
21811;DHT22;11067;48.788;9.208;2023-09-30T11:44:49;21.80;99.90
21811;DHT22;11067;48.788;9.208;2023-09-30T11:47:15;21.20;99.90
21811;DHT22;11067;48.788;9.208;2023-09-30T11:49:52;21.10;99.90
21811;DHT22;11067;48.788;9.208;2023-09-30T11:52:26;21.10;99.90
21811;DHT22;11067;48.788;9.208;2023-09-30T11:54:52;21.10;99.90
21811;DHT22;11067;48.788;9.208;2023-09-30T11:57:18;21.30;99.90
21811;DHT22;11067;48.788;9.208;2023-09-30T11:59:45;21.10;99.90
21811;DHT22;11067;48.788;9.208;2023-09-30T12:02:12;20.70;99.90
21811;DHT22;11067;48.788;9.208;2023-09-30T12:04:38;20.90;99.90
21811;DHT22;11067;48.788;9.208;2023-09-30T12:07:04;20.80;99.90
21811;DHT22;11067;48.788;9.208;2023-09-30T12:09:30;20.80;99.90
21811;DHT22;11067;48.788;9.208;2023-09-30T12:11:57;20.70;99.90
21811;DHT22;11067;48.788;9.208;2023-09-30T12:14:23;20.70;99.90
21811;DHT22;11067;48.788;9.208;2023-09-30T12:16:49;20.40;99.90
21811;DHT22;11067;48.788;9.208;2023-09-30T12:19:16;20.40;99.90
21811;DHT22;11067;48.788;9.208;2023-09-30T12:21:43;20.80;99.90
21811;DHT22;11067;48.788;9.208;2023-09-30T12:24:12;20.70;99.90
21811;DHT22;11067;48.788;9.208;2023-09-30T12:26:44;20.60;99.90
21811;DHT22;11067;48.788;9.208;2023-09-30T12:29:20;21.10;99.90
21811;DHT22;11067;48.788;9.208;2023-09-30T12:31:48;21.30;99.90
21811;DHT22;11067;48.788;9.208;2023-09-30T12:34:14;20.90;99.90
21811;DHT22;11067;48.788;9.208;2023-09-30T12:36:40;20.80;99.90
21811;DHT22;11067;48.788;9.208;2023-09-30T12:39:07;21.00;99.90
21811;DHT22;11067;48.788;9.208;2023-09-30T12:41:44;20.90;99.90
21811;DHT22;11067;48.788;9.208;2023-09-30T12:44:10;21.40;99.90
21811;DHT22;11067;48.788;9.208;2023-09-30T12:46:37;21.30;99.90
21811;DHT22;11067;48.788;9.208;2023-09-30T12:49:05;21.60;99.90
21811;DHT22;11067;48.788;9.208;2023-09-30T12:51:30;21.60;99.90
21811;DHT22;11067;48.788;9.208;2023-09-30T12:53:56;21.80;99.90
21811;DHT22;11067;48.788;9.208;2023-09-30T12:56:23;21.70;99.90
21811;DHT22;11067;48.788;9.208;2023-09-30T12:58:49;21.90;99.90
21811;DHT22;11067;48.788;9.208;2023-09-30T13:01:14;22.10;99.90
21811;DHT22;11067;48.788;9.208;2023-09-30T13:03:40;21.90;99.90
21811;DHT22;11067;48.788;9.208;2023-09-30T13:06:05;22.00;99.90
21811;DHT22;11067;48.788;9.208;2023-09-30T13:08:31;22.10;99.90
21811;DHT22;11067;48.788;9.208;2023-09-30T13:11:00;22.00;99.90
21811;DHT22;11067;48.788;9.208;2023-09-30T13:13:28;21.70;99.60
21811;DHT22;11067;48.788;9.208;2023-09-30T13:15:54;21.40;99.90
21811;DHT22;11067;48.788;9.208;2023-09-30T13:18:19;21.40;99.90
21811;DHT22;11067;48.788;9.208;2023-09-30T13:20:45;21.50;99.90
21811;DHT22;11067;48.788;9.208;2023-09-30T13:23:10;21.70;99.90
21811;DHT22;11067;48.788;9.208;2023-09-30T13:25:36;21.50;99.80
21811;DHT22;11067;48.788;9.208;2023-09-30T13:28:01;21.60;99.60
21811;DHT22;11067;48.788;9.208;2023-09-30T13:30:27;21.90;99.90
21811;DHT22;11067;48.788;9.208;2023-09-30T13:32:52;21.70;99.90
21811;DHT22;11067;48.788;9.208;2023-09-30T13:35:18;21.80;99.90
21811;DHT22;11067;48.788;9.208;2023-09-30T13:37:44;21.70;99.90
21811;DHT22;11067;48.788;9.208;2023-09-30T13:40:10;21.70;99.90
21811;DHT22;11067;48.788;9.208;2023-09-30T13:42:37;21.60;99.90
21811;DHT22;11067;48.788;9.208;2023-09-30T13:45:02;21.80;99.90
21811;DHT22;11067;48.788;9.208;2023-09-30T13:47:28;21.80;99.90
21811;DHT22;11067;48.788;9.208;2023-09-30T13:49:54;21.70;99.90
21811;DHT22;11067;48.788;9.208;2023-09-30T13:52:20;21.90;99.90
21811;DHT22;11067;48.788;9.208;2023-09-30T13:54:46;21.70;99.90
21811;DHT22;11067;48.788;9.208;2023-09-30T13:57:12;21.70;99.90
21811;DHT22;11067;48.788;9.208;2023-09-30T13:59:39;21.30;99.90
21811;DHT22;11067;48.788;9.208;2023-09-30T14:02:05;21.30;99.90
21811;DHT22;11067;48.788;9.208;2023-09-30T14:04:30;21.10;99.90
21811;DHT22;11067;48.788;9.208;2023-09-30T14:07:01;20.90;99.90
21811;DHT22;11067;48.788;9.208;2023-09-30T14:09:27;20.80;99.90
21811;DHT22;11067;48.788;9.208;2023-09-30T14:11:53;21.10;99.90
21811;DHT22;11067;48.788;9.208;2023-09-30T14:14:18;20.90;99.90
21811;DHT22;11067;48.788;9.208;2023-09-30T14:16:44;20.90;99.90
21811;DHT22;11067;48.788;9.208;2023-09-30T14:19:10;21.10;99.90
21811;DHT22;11067;48.788;9.208;2023-09-30T14:21:35;21.00;99.90
21811;DHT22;11067;48.788;9.208;2023-09-30T14:24:01;21.00;99.90
21811;DHT22;11067;48.788;9.208;2023-09-30T14:26:27;21.00;99.90
21811;DHT22;11067;48.788;9.208;2023-09-30T14:28:53;21.10;99.90
21811;DHT22;11067;48.788;9.208;2023-09-30T14:31:19;21.10;99.90
21811;DHT22;11067;48.788;9.208;2023-09-30T14:33:44;21.30;99.90
21811;DHT22;11067;48.788;9.208;2023-09-30T14:36:10;21.30;99.90
21811;DHT22;11067;48.788;9.208;2023-09-30T14:38:36;21.40;99.90
21811;DHT22;11067;48.788;9.208;2023-09-30T14:41:07;21.30;99.90
21811;DHT22;11067;48.788;9.208;2023-09-30T14:43:33;21.30;99.90
21811;DHT22;11067;48.788;9.208;2023-09-30T14:46:01;21.20;99.90
21811;DHT22;11067;48.788;9.208;2023-09-30T14:48:27;21.20;99.90
21811;DHT22;11067;48.788;9.208;2023-09-30T14:50:53;21.00;99.90
21811;DHT22;11067;48.788;9.208;2023-09-30T14:53:19;21.10;99.90
21811;DHT22;11067;48.788;9.208;2023-09-30T14:55:45;21.20;99.90
21811;DHT22;11067;48.788;9.208;2023-09-30T14:58:10;21.20;99.90
21811;DHT22;11067;48.788;9.208;2023-09-30T15:00:36;21.30;99.90
21811;DHT22;11067;48.788;9.208;2023-09-30T15:03:01;21.20;99.90
21811;DHT22;11067;48.788;9.208;2023-09-30T15:05:27;21.20;99.90
21811;DHT22;11067;48.788;9.208;2023-09-30T15:07:53;21.10;99.90
21811;DHT22;11067;48.788;9.208;2023-09-30T15:10:18;21.10;99.90
21811;DHT22;11067;48.788;9.208;2023-09-30T15:12:44;21.10;99.90
21811;DHT22;11067;48.788;9.208;2023-09-30T15:15:10;21.20;99.90
21811;DHT22;11067;48.788;9.208;2023-09-30T15:17:36;21.30;99.90
21811;DHT22;11067;48.788;9.208;2023-09-30T15:20:01;21.30;99.90
21811;DHT22;11067;48.788;9.208;2023-09-30T15:22:27;21.00;99.90
21811;DHT22;11067;48.788;9.208;2023-09-30T15:24:52;20.90;99.90
21811;DHT22;11067;48.788;9.208;2023-09-30T15:27:18;20.90;99.90
21811;DHT22;11067;48.788;9.208;2023-09-30T15:29:44;20.90;99.90
21811;DHT22;11067;48.788;9.208;2023-09-30T15:32:10;20.80;99.90
21811;DHT22;11067;48.788;9.208;2023-09-30T15:34:36;20.80;99.90
21811;DHT22;11067;48.788;9.208;2023-09-30T15:37:06;20.90;99.90
21811;DHT22;11067;48.788;9.208;2023-09-30T15:39:38;21.00;99.90
21811;DHT22;11067;48.788;9.208;2023-09-30T15:42:04;20.90;99.90
21811;DHT22;11067;48.788;9.208;2023-09-30T15:44:29;21.10;99.90
21811;DHT22;11067;48.788;9.208;2023-09-30T15:46:55;21.10;99.90